createdAt,value
2019-06-15T00:00:55.602Z,1004.84
2019-06-15T00:01:48.016Z,1004.88
2019-06-15T00:02:48.069Z,1004.92
2019-06-15T00:03:47.982Z,1004.96
2019-06-15T00:05:02.601Z,1004.94
2019-06-15T00:05:47.916Z,1004.86
2019-06-15T00:06:47.989Z,1004.72
2019-06-15T00:07:47.873Z,1004.65
2019-06-15T00:08:49.015Z,1004.57
2019-06-15T00:09:47.823Z,1004.49
2019-06-15T00:10:48.818Z,1004.35
2019-06-15T00:11:47.775Z,1004.26
2019-06-15T00:12:47.795Z,1004.15
2019-06-15T00:13:47.759Z,1004.06
2019-06-15T00:14:47.824Z,1004.02
2019-06-15T00:15:47.683Z,1003.98
2019-06-15T00:16:47.730Z,1004.02
2019-06-15T00:17:47.666Z,1003.99
2019-06-15T00:18:47.642Z,1004.01
2019-06-15T00:19:47.582Z,1004.02
2019-06-15T00:20:49.626Z,1004.07
2019-06-15T00:21:47.585Z,1004.18
2019-06-15T00:22:47.584Z,1004.30
2019-06-15T00:23:47.596Z,1004.35
2019-06-15T00:24:47.506Z,1004.43
2019-06-15T00:25:47.530Z,1004.47
2019-06-15T00:26:49.460Z,1004.41
2019-06-15T00:27:47.401Z,1004.38
2019-06-15T00:28:47.436Z,1004.33
2019-06-15T00:29:47.349Z,1004.28
2019-06-15T00:30:47.443Z,1004.26
2019-06-15T00:31:47.370Z,1004.22
2019-06-15T00:32:47.358Z,1004.18
2019-06-15T00:33:47.247Z,1004.18
2019-06-15T00:34:48.295Z,1004.12
2019-06-15T00:35:47.230Z,1004.11
2019-06-15T00:36:47.276Z,1004.03
2019-06-15T00:37:47.168Z,1003.98
2019-06-15T00:38:48.211Z,1003.96
2019-06-15T00:39:47.126Z,1003.91
2019-06-15T00:40:47.204Z,1003.82
2019-06-15T00:41:47.081Z,1003.72
2019-06-15T00:42:47.110Z,1003.62
2019-06-15T00:43:47.007Z,1003.48
2019-06-15T00:44:46.987Z,1003.42
2019-06-15T00:45:46.969Z,1003.35
2019-06-15T00:46:47.959Z,1003.32
2019-06-15T00:47:46.925Z,1003.32
2019-06-15T00:48:47.974Z,1003.31
2019-06-15T00:49:46.851Z,1003.35
2019-06-15T00:50:46.946Z,1003.33
2019-06-15T00:51:46.823Z,1003.28
2019-06-15T00:52:47.900Z,1003.27
2019-06-15T00:53:46.782Z,1003.28
2019-06-15T00:54:50.462Z,1003.25
2019-06-15T00:55:46.730Z,1003.22
2019-06-15T00:56:46.814Z,1003.20
2019-06-15T00:57:46.660Z,1003.22
2019-06-15T00:58:53.665Z,1003.26
2019-06-15T00:59:46.607Z,1003.30
2019-06-15T01:00:48.655Z,1003.34
2019-06-15T01:01:46.552Z,1003.34
2019-06-15T01:03:46.539Z,1003.33
2019-06-15T01:04:55.161Z,1003.27
2019-06-15T01:05:46.503Z,1003.21
2019-06-15T01:06:53.240Z,1003.21
2019-06-15T01:07:46.423Z,1003.26
2019-06-15T01:08:53.219Z,1003.24
2019-06-15T01:09:46.366Z,1003.23
2019-06-15T01:10:47.402Z,1003.20
2019-06-15T01:11:46.330Z,1003.06
2019-06-15T01:12:47.421Z,1003.02
2019-06-15T01:13:46.285Z,1002.99
2019-06-15T01:14:48.400Z,1003.01
2019-06-15T01:15:46.232Z,1002.96
2019-06-15T01:16:46.337Z,1003.02
2019-06-15T01:17:46.173Z,1003.07
2019-06-15T01:18:46.224Z,1003.10
2019-06-15T01:19:46.136Z,1003.17
2019-06-15T01:20:46.165Z,1003.21
2019-06-15T01:21:46.077Z,1003.23
2019-06-15T01:22:46.151Z,1003.15
2019-06-15T01:23:46.040Z,1003.09
2019-06-15T01:24:47.179Z,1003.02
2019-06-15T01:25:45.968Z,1003.03
2019-06-15T01:26:45.971Z,1003.08
2019-06-15T01:27:45.946Z,1003.11
2019-06-15T01:28:46.023Z,1003.07
2019-06-15T01:29:45.896Z,1002.98
2019-06-15T01:30:46.919Z,1002.94
2019-06-15T01:31:45.914Z,1002.97
2019-06-15T01:32:45.907Z,1002.98
2019-06-15T01:33:45.801Z,1002.97
2019-06-15T01:34:47.755Z,1003.00
2019-06-15T01:35:45.742Z,1003.03
2019-06-15T01:36:45.717Z,1003.04
2019-06-15T01:37:45.682Z,1003.10
2019-06-15T01:38:45.727Z,1003.06
2019-06-15T01:39:45.626Z,1002.98
2019-06-15T01:40:45.639Z,1002.84
2019-06-15T01:41:45.592Z,1002.74
2019-06-15T01:42:45.652Z,1002.61
2019-06-15T01:43:45.558Z,1002.48
2019-06-15T01:44:45.562Z,1002.36
2019-06-15T01:45:45.500Z,1002.37
2019-06-15T01:46:45.584Z,1002.32
2019-06-15T01:47:45.460Z,1002.34
2019-06-15T01:48:45.507Z,1002.32
2019-06-15T01:49:45.389Z,1002.28
2019-06-15T01:50:45.399Z,1002.23
2019-06-15T01:51:45.352Z,1002.19
2019-06-15T01:52:45.419Z,1002.20
2019-06-15T01:53:45.312Z,1002.13
2019-06-15T01:54:45.328Z,1002.13
2019-06-15T01:55:45.267Z,1002.10
2019-06-15T01:56:45.338Z,1002.00
2019-06-15T01:57:45.208Z,1001.94
2019-06-15T01:58:45.245Z,1001.89
2019-06-15T01:59:45.150Z,1001.86
2019-06-15T02:00:45.183Z,1001.87
2019-06-15T02:01:45.108Z,1001.87
2019-06-15T02:02:45.203Z,1001.84
2019-06-15T02:03:45.060Z,1001.83
2019-06-15T02:04:45.104Z,1001.79
2019-06-15T02:05:44.990Z,1001.75
2019-06-15T02:06:45.017Z,1001.68
2019-06-15T02:07:44.959Z,1001.61
2019-06-15T02:08:45.016Z,1001.59
2019-06-15T02:09:44.980Z,1001.60
2019-06-15T02:10:44.919Z,1001.57
2019-06-15T02:11:44.840Z,1001.58
2019-06-15T02:12:44.859Z,1001.58
2019-06-15T02:13:44.794Z,1001.58
2019-06-15T02:14:44.854Z,1001.58
2019-06-15T02:15:44.739Z,1001.52
2019-06-15T02:16:44.760Z,1001.49
2019-06-15T02:17:44.766Z,1001.45
2019-06-15T02:18:44.756Z,1001.44
2019-06-15T02:19:44.653Z,1001.40
2019-06-15T02:20:44.693Z,1001.36
2019-06-15T02:21:44.618Z,1001.30
2019-06-15T02:22:44.599Z,1001.28
2019-06-15T02:23:44.559Z,1001.28
2019-06-15T02:24:44.685Z,1001.25
2019-06-15T02:25:44.485Z,1001.24
2019-06-15T02:26:44.542Z,1001.18
2019-06-15T02:27:44.457Z,1001.16
2019-06-15T02:28:44.554Z,1001.14
2019-06-15T02:29:44.399Z,1001.08
2019-06-15T02:30:44.450Z,1001.01
2019-06-15T02:31:44.431Z,1000.99
2019-06-15T02:32:44.354Z,1000.98
2019-06-15T02:33:44.325Z,1000.96
2019-06-15T02:34:44.360Z,1000.97
2019-06-15T02:35:44.253Z,1000.93
2019-06-15T02:36:44.285Z,1000.93
2019-06-15T02:37:44.199Z,1000.95
2019-06-15T02:38:44.196Z,1000.88
2019-06-15T02:39:44.161Z,1000.89
2019-06-15T02:40:44.321Z,1000.87
2019-06-15T02:41:44.104Z,1000.92
2019-06-15T02:42:45.113Z,1000.93
2019-06-15T02:43:44.049Z,1000.93
2019-06-15T02:44:44.129Z,1000.97
2019-06-15T02:45:44.004Z,1000.96
2019-06-15T02:46:44.022Z,1000.98
2019-06-15T02:47:43.945Z,1000.97
2019-06-15T02:48:44.048Z,1000.98
2019-06-15T02:49:43.906Z,1001.03
2019-06-15T02:50:43.947Z,1001.05
2019-06-15T02:51:43.851Z,1001.09
2019-06-15T02:52:43.853Z,1001.14
2019-06-15T02:53:45.554Z,1001.10
2019-06-15T02:54:43.877Z,1001.14
2019-06-15T02:55:50.731Z,1001.15
2019-06-15T02:56:43.779Z,1001.18
2019-06-15T02:57:43.683Z,1001.21
2019-06-15T02:58:43.732Z,1001.26
2019-06-15T02:59:43.658Z,1001.30
2019-06-15T03:00:43.708Z,1001.31
2019-06-15T03:01:43.596Z,1001.32
2019-06-15T03:02:43.678Z,1001.36
2019-06-15T03:03:43.553Z,1001.33
2019-06-15T03:04:43.639Z,1001.39
2019-06-15T03:05:43.504Z,1001.44
2019-06-15T03:06:43.562Z,1001.44
2019-06-15T03:07:43.467Z,1001.40
2019-06-15T03:08:43.467Z,1001.45
2019-06-15T03:09:43.417Z,1001.50
2019-06-15T03:10:43.552Z,1001.54
2019-06-15T03:11:43.363Z,1001.55
2019-06-15T03:12:43.384Z,1001.56
2019-06-15T03:13:43.296Z,1001.55
2019-06-15T03:14:43.303Z,1001.54
2019-06-15T03:15:43.256Z,1001.50
2019-06-15T03:16:43.229Z,1001.52
2019-06-15T03:17:43.309Z,1001.54
2019-06-15T03:18:43.212Z,1001.52
2019-06-15T03:19:43.154Z,1001.54
2019-06-15T03:20:43.241Z,1001.53
2019-06-15T03:21:43.099Z,1001.54
2019-06-15T03:22:43.158Z,1001.52
2019-06-15T03:23:43.063Z,1001.60
2019-06-15T03:24:45.119Z,1001.60
2019-06-15T03:25:43.010Z,1001.63
2019-06-15T03:26:44.079Z,1001.66
2019-06-15T03:27:42.963Z,1001.66
2019-06-15T03:28:50.776Z,1001.68
2019-06-15T03:29:42.901Z,1001.74
2019-06-15T03:30:43.942Z,1001.71
2019-06-15T03:31:42.865Z,1001.75
2019-06-15T03:32:50.716Z,1001.76
2019-06-15T03:33:42.844Z,1001.74
2019-06-15T03:34:58.709Z,1001.79
2019-06-15T03:35:42.764Z,1001.79
2019-06-15T03:36:50.751Z,1001.87
2019-06-15T03:37:42.698Z,1001.87
2019-06-15T03:38:44.792Z,1001.86
2019-06-15T03:39:42.685Z,1001.88
2019-06-15T03:40:49.230Z,1001.91
2019-06-15T03:41:42.619Z,1001.91
2019-06-15T03:42:42.657Z,1001.97
2019-06-15T03:43:42.557Z,1001.96
2019-06-15T03:44:49.244Z,1002.01
2019-06-15T03:45:42.517Z,1001.99
2019-06-15T03:46:43.517Z,1001.96
2019-06-15T03:47:42.464Z,1001.99
2019-06-15T03:48:50.193Z,1001.93
2019-06-15T03:49:42.418Z,1001.88
2019-06-15T03:50:50.213Z,1001.81
2019-06-15T03:51:42.353Z,1001.72
2019-06-15T03:52:42.438Z,1001.63
2019-06-15T03:53:42.303Z,1001.54
2019-06-15T03:54:42.348Z,1001.51
2019-06-15T03:55:42.269Z,1001.42
2019-06-15T03:56:42.260Z,1001.38
2019-06-15T03:57:42.261Z,1001.36
2019-06-15T03:58:43.294Z,1001.32
2019-06-15T03:59:42.176Z,1001.30
2019-06-15T04:00:42.172Z,1001.29
2019-06-15T04:01:42.105Z,1001.32
2019-06-15T04:02:44.170Z,1001.26
2019-06-15T04:03:42.053Z,1001.27
2019-06-15T04:04:42.107Z,1001.32
2019-06-15T04:05:42.006Z,1001.32
2019-06-15T04:06:43.088Z,1001.32
2019-06-15T04:07:41.981Z,1001.39
2019-06-15T04:08:41.975Z,1001.41
2019-06-15T04:09:41.919Z,1001.43
2019-06-15T04:10:41.974Z,1001.47
2019-06-15T04:11:41.848Z,1001.44
2019-06-15T04:12:48.778Z,1001.46
2019-06-15T04:13:41.825Z,1001.50
2019-06-15T04:14:41.811Z,1001.42
2019-06-15T04:15:41.753Z,1001.43
2019-06-15T04:16:42.851Z,1001.47
2019-06-15T04:17:41.868Z,1001.51
2019-06-15T04:18:41.740Z,1001.48
2019-06-15T04:19:41.662Z,1001.49
2019-06-15T04:20:49.230Z,1001.46
2019-06-15T04:21:41.608Z,1001.45
2019-06-15T04:22:41.709Z,1001.40
2019-06-15T04:23:41.558Z,1001.36
2019-06-15T04:24:42.673Z,1001.32
2019-06-15T04:25:44.116Z,1001.22
2019-06-15T04:26:41.582Z,1001.19
2019-06-15T04:27:41.467Z,1001.14
2019-06-15T04:28:49.208Z,1001.11
2019-06-15T04:29:41.404Z,1001.07
2019-06-15T04:30:49.194Z,1001.07
2019-06-15T04:31:41.394Z,1001.04
2019-06-15T04:32:41.374Z,1001.00
2019-06-15T04:33:41.305Z,1001.02
2019-06-15T04:34:41.389Z,1001.02
2019-06-15T04:35:41.271Z,1000.99
2019-06-15T04:36:41.304Z,1000.97
2019-06-15T04:37:41.210Z,1000.93
2019-06-15T04:38:41.307Z,1000.91
2019-06-15T04:39:41.162Z,1000.90
2019-06-15T04:40:41.222Z,1000.91
2019-06-15T04:41:41.104Z,1000.91
2019-06-15T04:42:41.223Z,1000.88
2019-06-15T04:43:41.054Z,1000.89
2019-06-15T04:44:41.141Z,1000.87
2019-06-15T04:45:41.027Z,1000.91
2019-06-15T04:46:41.059Z,1000.89
2019-06-15T04:47:40.965Z,1000.91
2019-06-15T04:48:41.055Z,1000.90
2019-06-15T04:49:40.909Z,1000.97
2019-06-15T04:50:40.991Z,1001.01
2019-06-15T04:51:40.869Z,1001.05
2019-06-15T04:52:40.921Z,1001.06
2019-06-15T04:53:40.810Z,1001.09
2019-06-15T04:54:40.906Z,1001.13
2019-06-15T04:55:40.778Z,1001.18
2019-06-15T04:56:50.519Z,1001.17
2019-06-15T04:57:40.703Z,1001.18
2019-06-15T04:58:40.851Z,1001.14
2019-06-15T04:59:40.652Z,1001.14
2019-06-15T05:00:40.735Z,1001.11
2019-06-15T05:01:40.622Z,1001.12
2019-06-15T05:02:40.656Z,1001.11
2019-06-15T05:03:40.559Z,1001.12
2019-06-15T05:04:40.546Z,1001.10
2019-06-15T05:05:40.506Z,1001.17
2019-06-15T05:06:40.581Z,1001.21
2019-06-15T05:07:40.460Z,1001.27
2019-06-15T05:08:40.496Z,1001.33
2019-06-15T05:09:40.422Z,1001.42
2019-06-15T05:10:40.529Z,1001.48
2019-06-15T05:11:40.368Z,1001.57
2019-06-15T05:12:56.302Z,1001.63
2019-06-15T05:13:40.314Z,1001.77
2019-06-15T05:14:40.506Z,1001.84
2019-06-15T05:15:40.342Z,1001.86
2019-06-15T05:16:48.318Z,1001.92
2019-06-15T05:17:40.235Z,1001.95
2019-06-15T05:18:40.231Z,1001.95
2019-06-15T05:19:40.163Z,1001.93
2019-06-15T05:20:40.253Z,1001.83
2019-06-15T05:21:40.107Z,1001.79
2019-06-15T05:22:40.174Z,1001.76
2019-06-15T05:23:40.075Z,1001.73
2019-06-15T05:24:47.765Z,1001.67
2019-06-15T05:25:40.004Z,1001.71
2019-06-15T05:26:41.124Z,1001.70
2019-06-15T05:27:39.954Z,1001.71
2019-06-15T05:28:40.011Z,1001.76
2019-06-15T05:29:39.922Z,1001.79
2019-06-15T05:30:40.018Z,1001.84
2019-06-15T05:31:39.874Z,1001.85
2019-06-15T05:32:46.793Z,1001.86
2019-06-15T05:33:39.834Z,1001.84
2019-06-15T05:34:40.854Z,1001.86
2019-06-15T05:35:39.760Z,1001.84
2019-06-15T05:37:00.748Z,1001.86
2019-06-15T05:37:39.706Z,1001.90
2019-06-15T05:38:39.763Z,1001.88
2019-06-15T05:39:39.686Z,1001.88
2019-06-15T05:40:39.776Z,1001.89
2019-06-15T05:41:39.610Z,1001.88
2019-06-15T05:42:55.400Z,1001.87
2019-06-15T05:43:39.556Z,1001.85
2019-06-15T05:44:41.650Z,1001.85
2019-06-15T05:45:39.527Z,1001.84
2019-06-15T05:46:46.268Z,1001.83
2019-06-15T05:47:39.474Z,1001.85
2019-06-15T05:48:40.532Z,1001.87
2019-06-15T05:49:39.409Z,1001.87
2019-06-15T05:51:39.364Z,1001.89
2019-06-15T05:52:46.320Z,1001.88
2019-06-15T05:53:39.332Z,1001.87
2019-06-15T05:54:41.408Z,1001.94
2019-06-15T05:55:39.265Z,1001.95
2019-06-15T05:56:40.437Z,1001.89
2019-06-15T05:57:39.216Z,1001.92
2019-06-15T05:59:00.309Z,1001.90
2019-06-15T05:59:39.185Z,1001.88
2019-06-15T06:00:39.251Z,1001.91
2019-06-15T06:01:39.100Z,1001.86
2019-06-15T06:02:46.803Z,1001.92
2019-06-15T06:03:39.058Z,1001.93
2019-06-15T06:04:46.814Z,1001.94
2019-06-15T06:05:39.019Z,1001.99
2019-06-15T06:07:03.811Z,1002.03
2019-06-15T06:07:38.972Z,1002.07
2019-06-15T06:08:59.937Z,1002.17
2019-06-15T06:09:38.911Z,1002.20
2019-06-15T06:10:55.897Z,1002.25
2019-06-15T06:11:38.875Z,1002.26
2019-06-15T06:12:53.813Z,1002.30
2019-06-15T06:13:38.805Z,1002.33
2019-06-15T06:14:39.938Z,1002.33
2019-06-15T06:15:38.777Z,1002.37
2019-06-15T06:16:53.854Z,1002.36
2019-06-15T06:17:38.714Z,1002.37
2019-06-15T06:18:46.448Z,1002.34
2019-06-15T06:19:38.688Z,1002.33
2019-06-15T06:21:38.629Z,1002.28
2019-06-15T06:22:38.632Z,1002.23
2019-06-15T06:24:01.678Z,1002.20
2019-06-15T06:24:38.544Z,1002.19
2019-06-15T06:25:38.500Z,1002.25
2019-06-15T06:26:39.582Z,1002.26
2019-06-15T06:27:38.480Z,1002.36
2019-06-15T06:28:39.596Z,1002.35
2019-06-15T06:29:38.411Z,1002.38
2019-06-15T07:39:52.462Z,1002.69
2019-06-15T07:40:22.846Z,1002.78
2019-06-15T07:41:37.483Z,1002.74
2019-06-15T07:42:22.794Z,1002.74
2019-06-15T08:38:31.384Z,1003.33
2019-06-15T08:39:31.341Z,1003.34
2019-06-15T08:40:31.340Z,1003.34
2019-06-15T08:41:31.387Z,1003.40
2019-06-15T08:42:31.273Z,1003.42
2019-06-15T08:43:31.312Z,1003.45
2019-06-15T08:44:31.221Z,1003.52
2019-06-15T08:45:31.218Z,1003.51
2019-06-15T08:46:31.170Z,1003.53
2019-06-15T08:47:31.227Z,1003.54
2019-06-15T08:48:31.120Z,1003.56
2019-06-15T08:49:31.152Z,1003.55
2019-06-15T08:50:31.067Z,1003.60
2019-06-15T08:51:31.167Z,1003.60
2019-06-15T08:52:31.020Z,1003.60
2019-06-15T08:53:31.070Z,1003.60
2019-06-15T08:54:30.965Z,1003.61
2019-06-15T08:55:30.946Z,1003.63
2019-06-15T08:56:30.947Z,1003.67
2019-06-15T08:57:31.003Z,1003.71
2019-06-15T08:58:30.872Z,1003.71
2019-06-15T08:59:30.920Z,1003.76
2019-06-15T09:00:30.853Z,1003.76
2019-06-15T09:01:30.831Z,1003.81
2019-06-15T09:02:30.807Z,1003.85
2019-06-15T09:39:23.682Z,1004.16
2019-06-15T09:40:21.746Z,1004.16
2019-06-15T09:41:21.720Z,1004.12
2019-06-15T09:42:21.692Z,1004.13
2019-06-15T09:43:21.768Z,1004.17
2019-06-15T09:44:21.644Z,1004.14
2019-06-15T09:45:33.046Z,1004.12
2019-06-15T09:50:27.654Z,1004.20
2019-06-15T09:51:27.694Z,1004.24
2019-06-15T09:52:27.581Z,1004.24
2019-06-15T09:53:27.571Z,1004.23
2019-06-15T09:54:28.213Z,1004.27
2019-06-15T09:55:27.500Z,1004.26
2019-06-15T09:56:27.472Z,1004.30
2019-06-15T09:57:27.489Z,1004.31
2019-06-15T09:58:27.449Z,1004.30
2019-06-15T09:59:27.405Z,1004.29
2019-06-15T10:00:27.358Z,1004.32
2019-06-15T10:01:27.415Z,1004.31
2019-06-15T10:02:27.310Z,1004.34
2019-06-15T10:03:27.551Z,1004.35
2019-06-15T10:04:27.258Z,1004.32
2019-06-15T10:05:27.349Z,1004.30
2019-06-15T10:06:27.213Z,1004.34
2019-06-15T10:07:28.264Z,1004.33
2019-06-15T10:08:27.184Z,1004.33
2019-06-15T10:09:27.170Z,1004.33
2019-06-15T10:10:27.129Z,1004.29
2019-06-15T10:11:27.180Z,1004.36
2019-06-15T10:12:27.088Z,1004.37
2019-06-15T10:13:27.100Z,1004.38
2019-06-15T10:19:32.560Z,1004.48
2019-06-15T10:20:32.549Z,1004.46
2019-06-15T10:21:32.496Z,1004.54
2019-06-15T10:22:32.494Z,1004.47
2019-06-15T10:23:32.445Z,1004.47
2019-06-15T10:24:32.430Z,1004.47
2019-06-15T10:25:32.469Z,1004.55
2019-06-15T10:26:32.363Z,1004.51
2019-06-15T10:27:32.383Z,1004.44
2019-06-15T10:28:32.329Z,1004.52
2019-06-15T10:29:41.668Z,1004.47
2019-06-15T10:30:32.261Z,1004.46
2019-06-15T10:31:32.429Z,1004.50
2019-06-15T10:32:32.255Z,1004.57
2019-06-15T10:33:32.333Z,1004.57
2019-06-15T10:34:32.173Z,1004.56
2019-06-15T10:35:32.355Z,1004.60
2019-06-15T10:36:32.149Z,1004.57
2019-06-15T10:37:32.270Z,1004.60
2019-06-15T10:38:32.059Z,1004.57
2019-06-15T10:39:32.046Z,1004.64
2019-06-15T10:40:32.030Z,1004.69
2019-06-15T10:41:32.003Z,1004.66
2019-06-15T10:42:31.971Z,1004.67
2019-06-15T10:43:31.972Z,1004.70
2019-06-15T10:44:31.941Z,1004.67
2019-06-15T10:45:31.905Z,1004.71
2019-06-15T10:46:31.884Z,1004.71
2019-06-15T10:47:32.032Z,1004.78
2019-06-15T10:48:31.827Z,1004.81
2019-06-15T10:49:31.835Z,1004.85
2019-06-15T10:50:31.819Z,1004.91
2019-06-15T10:51:31.758Z,1004.95
2019-06-15T10:52:31.761Z,1005.00
2019-06-15T10:53:31.759Z,1005.04
2019-06-15T10:54:31.695Z,1005.06
2019-06-15T10:55:31.671Z,1005.05
2019-06-15T10:56:31.756Z,1005.11
2019-06-15T10:57:31.718Z,1005.14
2019-06-15T10:58:31.657Z,1005.11
2019-06-15T10:59:31.594Z,1005.16
2019-06-15T11:00:31.648Z,1005.19
2019-06-15T11:01:31.540Z,1005.22
2019-06-15T11:02:31.510Z,1005.25
2019-06-15T11:03:31.514Z,1005.24
2019-06-15T11:04:31.417Z,1005.27
2019-06-15T11:05:31.388Z,1005.27
2019-06-15T11:06:31.371Z,1005.29
2019-06-15T11:07:31.347Z,1005.31
2019-06-15T11:08:31.322Z,1005.31
2019-06-15T11:09:31.305Z,1005.32
2019-06-15T11:10:31.467Z,1005.30
2019-06-15T11:11:31.286Z,1005.35
2019-06-15T11:12:45.470Z,1005.33
2019-06-15T11:13:31.209Z,1005.36
2019-06-15T11:14:31.315Z,1005.41
2019-06-15T11:15:31.174Z,1005.47
2019-06-15T11:16:31.154Z,1005.44
2019-06-15T11:17:31.112Z,1005.51
2019-06-15T11:18:31.140Z,1005.45
2019-06-15T11:19:31.093Z,1005.51
2019-06-15T11:20:31.037Z,1005.47
2019-06-15T11:21:31.029Z,1005.48
2019-06-15T11:22:31.012Z,1005.52
2019-06-15T11:23:30.959Z,1005.49
2019-06-15T11:24:30.968Z,1005.49
2019-06-15T11:25:30.918Z,1005.48
2019-06-15T11:26:30.907Z,1005.54
2019-06-15T11:27:30.870Z,1005.55
2019-06-15T11:28:30.870Z,1005.50
2019-06-15T11:29:30.808Z,1005.59
2019-06-15T11:30:30.787Z,1005.62
2019-06-15T11:31:30.779Z,1005.62
2019-06-15T11:32:30.740Z,1005.60
2019-06-15T11:33:30.722Z,1005.60
2019-06-15T11:34:30.746Z,1005.63
2019-06-15T11:35:30.672Z,1005.63
2019-06-15T11:36:30.737Z,1005.54
2019-06-15T11:37:30.610Z,1005.59
2019-06-15T11:38:30.647Z,1005.58
2019-06-15T11:39:30.566Z,1005.53
2019-06-15T11:40:30.549Z,1005.56
2019-06-15T11:41:30.534Z,1005.57
2019-06-15T11:42:30.567Z,1005.68
2019-06-15T11:43:30.469Z,1005.70
2019-06-15T11:44:30.467Z,1005.70
2019-06-15T11:45:30.421Z,1005.74
2019-06-15T11:46:30.501Z,1005.82
2019-06-15T11:47:30.396Z,1005.73
2019-06-15T11:48:30.408Z,1005.78
2019-06-15T11:49:30.319Z,1005.79
2019-06-15T11:50:30.332Z,1005.72
2019-06-15T11:51:30.275Z,1005.85
2019-06-15T11:52:30.334Z,1005.84
2019-06-15T11:53:30.221Z,1005.93
2019-06-15T11:54:30.257Z,1005.92
2019-06-15T11:55:39.124Z,1005.84
2019-06-15T11:56:30.175Z,1005.90
2019-06-15T11:57:30.190Z,1005.88
2019-06-15T11:58:30.114Z,1005.89
2019-06-15T11:59:31.107Z,1005.93
2019-06-15T12:00:31.535Z,1006.03
2019-06-15T12:01:30.024Z,1006.02
2019-06-15T12:02:30.030Z,1006.03
2019-06-15T12:03:29.987Z,1006.09
2019-06-15T12:04:30.174Z,1006.17
2019-06-15T12:05:31.053Z,1006.18
2019-06-15T12:06:29.910Z,1006.19
2019-06-15T12:07:29.873Z,1006.15
2019-06-15T12:08:31.117Z,1006.11
2019-06-15T12:09:29.818Z,1006.14
2019-06-15T12:10:57.456Z,1006.16
2019-06-15T12:11:29.780Z,1006.20
2019-06-15T12:12:29.762Z,1006.22
2019-06-15T12:40:49.924Z,1006.72
2019-06-15T12:41:52.028Z,1006.76
2019-06-15T12:42:49.866Z,1006.80
2019-06-15T12:43:49.881Z,1006.80
2019-06-15T12:44:49.823Z,1006.80
2019-06-15T12:45:57.853Z,1006.79
2019-06-15T12:46:49.983Z,1006.86
2019-06-15T12:47:49.801Z,1006.87
2019-06-15T12:48:49.719Z,1006.87
2019-06-15T12:50:10.704Z,1006.84
2019-06-15T12:50:49.661Z,1006.85
2019-06-15T12:51:50.772Z,1006.89
2019-06-15T12:52:49.826Z,1006.88
2019-06-15T12:53:49.618Z,1006.91
2019-06-15T12:54:49.564Z,1006.99
2019-06-15T12:55:56.233Z,1006.96
2019-06-15T12:56:49.519Z,1007.00
2019-06-15T12:57:52.941Z,1007.01
2019-06-15T12:58:49.488Z,1007.00
2019-06-15T12:59:58.201Z,1007.02
2019-06-15T13:01:02.280Z,1006.98
2019-06-15T13:01:49.437Z,1006.96
2019-06-15T13:02:50.430Z,1006.97
2019-06-15T13:03:49.346Z,1007.01
2019-06-15T13:04:57.225Z,1007.02
2019-06-15T13:05:49.330Z,1006.98
2019-06-15T13:06:51.376Z,1007.04
2019-06-15T13:07:49.252Z,1006.98
2019-06-15T13:08:50.277Z,1007.04
2019-06-15T13:09:49.209Z,1007.10
2019-06-15T13:11:10.158Z,1007.11
2019-06-15T13:11:49.145Z,1007.07
2019-06-15T13:12:49.127Z,1007.14
2019-06-15T13:13:49.091Z,1007.08
2019-06-15T13:14:50.112Z,1007.02
2019-06-15T13:15:49.045Z,1007.12
2019-06-15T13:16:49.104Z,1007.08
2019-06-15T13:17:49.130Z,1007.05
2019-06-15T13:18:49.029Z,1007.02
2019-06-15T13:19:48.939Z,1007.04
2019-06-15T13:20:49.970Z,1007.03
2019-06-15T13:21:48.901Z,1007.04
2019-06-15T13:23:10.085Z,1007.09
2019-06-15T13:23:48.857Z,1007.03
2019-06-15T13:24:48.868Z,1007.04
2019-06-15T13:25:48.832Z,1007.12
2019-06-15T13:26:48.872Z,1007.06
2019-06-15T13:27:48.763Z,1007.06
2019-06-15T13:28:55.904Z,1007.05
2019-06-15T13:29:49.610Z,1006.98
2019-06-15T13:30:56.225Z,1007.03
2019-06-15T13:31:52.662Z,1007.05
2019-06-15T13:32:49.777Z,1007.00
2019-06-15T13:33:48.660Z,1006.99
2019-06-15T13:34:49.274Z,1007.01
2019-06-15T13:35:48.670Z,1007.07
2019-06-15T13:36:48.535Z,1007.01
2019-06-15T13:37:48.583Z,1007.01
2019-06-15T13:38:48.502Z,1007.04
2019-06-15T13:39:48.473Z,1007.01
2019-06-15T13:40:48.436Z,1007.02
2019-06-15T13:41:48.430Z,1007.00
2019-06-15T13:42:48.510Z,1006.98
2019-06-15T13:43:48.368Z,1007.05
2019-06-15T13:44:48.358Z,1007.10
2019-06-15T13:45:48.329Z,1007.09
2019-06-15T13:46:48.314Z,1007.14
2019-06-15T13:47:58.533Z,1007.11
2019-06-15T13:48:48.457Z,1007.15
2019-06-15T13:49:48.246Z,1007.12
2019-06-15T13:50:48.224Z,1007.15
2019-06-15T13:51:48.209Z,1007.16
2019-06-15T13:52:48.145Z,1007.10
2019-06-15T13:53:48.125Z,1007.15
2019-06-15T13:54:48.138Z,1007.13
2019-06-15T13:55:49.166Z,1007.14
2019-06-15T13:56:48.059Z,1007.19
2019-06-15T13:57:48.264Z,1007.16
2019-06-15T13:58:48.022Z,1007.19
2019-06-15T13:59:47.986Z,1007.14
2019-06-15T14:00:47.949Z,1007.22
2019-06-15T14:01:47.932Z,1007.26
2019-06-15T14:02:48.036Z,1007.37
2019-06-15T14:03:47.892Z,1007.28
2019-06-15T14:04:47.862Z,1007.35
2019-06-15T14:05:47.951Z,1007.33
2019-06-15T14:06:47.813Z,1007.36
2019-06-15T14:07:48.006Z,1007.39
2019-06-15T14:08:47.751Z,1007.42
2019-06-15T14:09:47.831Z,1007.40
2019-06-15T14:10:47.725Z,1007.37
2019-06-15T14:11:47.683Z,1007.39
2019-06-15T14:12:47.651Z,1007.39
2019-06-15T14:13:47.638Z,1007.39
2019-06-15T14:14:47.613Z,1007.39
2019-06-15T14:15:47.833Z,1007.34
2019-06-15T14:16:47.642Z,1007.37
2019-06-15T14:17:47.571Z,1007.38
2019-06-15T14:18:47.566Z,1007.37
2019-06-15T14:19:47.523Z,1007.35
2019-06-15T14:20:47.563Z,1007.36
2019-06-15T14:21:47.444Z,1007.43
2019-06-15T14:22:47.499Z,1007.38
2019-06-15T14:23:47.416Z,1007.38
2019-06-15T14:24:47.503Z,1007.36
2019-06-15T14:25:47.365Z,1007.35
2019-06-15T14:26:47.398Z,1007.33
2019-06-15T14:27:47.303Z,1007.31
2019-06-15T14:28:47.311Z,1007.32
2019-06-15T14:29:47.244Z,1007.28
2019-06-15T14:30:47.327Z,1007.38
2019-06-15T14:31:50.532Z,1007.33
2019-06-15T14:32:47.241Z,1007.37
2019-06-15T14:33:47.161Z,1007.30
2019-06-15T14:34:47.240Z,1007.38
2019-06-15T14:35:47.089Z,1007.41
2019-06-15T14:36:47.192Z,1007.31
2019-06-15T14:37:47.064Z,1007.32
2019-06-15T14:38:47.066Z,1007.34
2019-06-15T14:39:46.996Z,1007.34
2019-06-15T14:40:47.076Z,1007.30
2019-06-15T14:41:50.835Z,1007.31
2019-06-15T14:42:47.051Z,1007.29
2019-06-15T14:43:46.907Z,1007.31
2019-06-15T14:44:46.927Z,1007.37
2019-06-15T14:45:59.131Z,1007.37
2019-06-15T14:46:46.860Z,1007.36
2019-06-15T14:47:46.914Z,1007.31
2019-06-15T14:48:46.771Z,1007.30
2019-06-15T14:49:46.899Z,1007.33
2019-06-15T14:50:46.775Z,1007.36
2019-06-15T14:51:46.748Z,1007.38
2019-06-15T14:52:46.749Z,1007.37
2019-06-15T14:53:49.901Z,1007.38
2019-06-15T14:54:46.685Z,1007.40
2019-06-15T14:55:46.608Z,1007.42
2019-06-15T14:56:46.597Z,1007.41
2019-06-15T14:57:46.553Z,1007.40
2019-06-15T14:58:46.590Z,1007.40
2019-06-15T14:59:59.405Z,1007.37
2019-06-15T15:00:46.745Z,1007.40
2019-06-15T15:01:47.026Z,1007.42
2019-06-15T15:02:46.831Z,1007.44
2019-06-15T15:03:47.254Z,1007.46
2019-06-15T15:04:47.475Z,1007.46
2019-06-15T15:05:46.385Z,1007.49
2019-06-15T15:06:47.169Z,1007.45
2019-06-15T15:07:46.910Z,1007.39
2019-06-15T15:08:47.132Z,1007.42
2019-06-15T15:09:49.181Z,1007.42
2019-06-15T15:10:46.299Z,1007.41
2019-06-15T15:11:46.304Z,1007.39
2019-06-15T15:12:46.246Z,1007.41
2019-06-15T15:13:47.204Z,1007.41
2019-06-15T15:14:46.923Z,1007.37
2019-06-15T15:15:46.788Z,1007.34
2019-06-15T15:16:46.707Z,1007.32
2019-06-15T15:17:46.169Z,1007.37
2019-06-15T15:18:46.446Z,1007.35
2019-06-15T15:19:46.616Z,1007.37
2019-06-15T15:20:46.022Z,1007.37
2019-06-15T15:21:47.053Z,1007.40
2019-06-15T15:22:46.532Z,1007.40
2019-06-15T15:23:52.699Z,1007.37
2019-06-15T15:24:45.930Z,1007.40